LTCR Airport Information

Runway Information
Runway 03 Length 8204 ft width 118 ft
Elevation 1650 ft Threshold 0 ft Heading 37
Runway 21 Length 8204 ft Width 118 ft
Elevation 1728 ft Threshold 0 ft Heading 217
Airport Frequencies
Type TWR Name TWR Frequency 118.65 MHZ
Airport Navaids
Type VOR-DME Name Mardin Frequency 116900 KHZ
Type NDB Name Mardin Frequency 403 KHZ
Airport Weather Information & NOTAM
ADDS - METARS form results

(1744 UTC 18 March 2019)
Data provider http://aviationweather.gov/metar/data/
 
Forecast for: LTCR (MARDIN AIRPORT , TR)
Text: TAF LTCR 181340Z 1815/1824 01008KT 9999 FEW040
Forecast period: 1500 UTC 18 March 2019 to 0000 UTC 19 March 2019
Forecast type: FROM: standard forecast or significant change
Winds: from the N (10 degrees) at 9 MPH (8 knots; 4.1 m/s)
Visibility: 6 or more miles 10+ km)
Ceiling: at least 12,000 feet AGL
Clouds: few clouds at 4000 feet AGL
Weather: no significant weather forecast for this period
Text: BECMG 1815/1818 CAVOK
Forecast period: 1500 UTC 18 March 2019 to 0000 UTC 19 March 2019
Forecast type: BECOMING: Conditions expected to become as follows by 1800 UTC 18 March 2019
Winds: from the N (10 degrees) at 9 MPH (8 knots; 4.1 m/s)
Visibility: 6 or more miles 10+ km)
Ceiling: unknown
Clouds: missing
Weather: NSW  (no significant weather)